sensor_id;sensor_type;location;lat;lon;timestamp;pressure;altitude;pressure_sealevel;temperature;humidity
76374;BME280;65197;50.164;8.012;2023-05-07T00:00:04;95533.66;;;12.10;100.00
76374;BME280;65197;50.164;8.012;2023-05-07T00:02:33;95521.88;;;12.08;100.00
76374;BME280;65197;50.164;8.012;2023-05-07T00:04:58;95543.88;;;12.10;100.00
76374;BME280;65197;50.164;8.012;2023-05-07T00:07:24;95532.00;;;12.09;100.00
76374;BME280;65197;50.164;8.012;2023-05-07T00:09:49;95532.75;;;12.11;100.00
76374;BME280;65197;50.164;8.012;2023-05-07T00:12:14;95532.56;;;12.14;100.00
76374;BME280;65197;50.164;8.012;2023-05-07T00:14:40;95530.59;;;12.19;100.00
76374;BME280;65197;50.164;8.012;2023-05-07T00:17:06;95526.22;;;12.21;100.00
76374;BME280;65197;50.164;8.012;2023-05-07T00:19:31;95520.22;;;12.22;100.00
76374;BME280;65197;50.164;8.012;2023-05-07T00:21:57;95521.69;;;12.27;100.00
76374;BME280;65197;50.164;8.012;2023-05-07T00:24:24;95530.91;;;12.29;100.00
76374;BME280;65197;50.164;8.012;2023-05-07T00:26:49;95531.41;;;12.36;100.00
76374;BME280;65197;50.164;8.012;2023-05-07T00:29:15;95525.78;;;12.45;99.09
76374;BME280;65197;50.164;8.012;2023-05-07T00:31:40;95524.72;;;12.49;99.24
76374;BME280;65197;50.164;8.012;2023-05-07T00:34:06;95528.34;;;12.45;98.35
76374;BME280;65197;50.164;8.012;2023-05-07T00:36:31;95510.94;;;12.36;99.06
76374;BME280;65197;50.164;8.012;2023-05-07T00:38:59;95516.97;;;12.35;99.42
76374;BME280;65197;50.164;8.012;2023-05-07T00:41:25;95517.03;;;12.33;99.31
76374;BME280;65197;50.164;8.012;2023-05-07T00:43:51;95510.19;;;12.34;99.86
76374;BME280;65197;50.164;8.012;2023-05-07T00:46:20;95508.50;;;12.34;100.00
76374;BME280;65197;50.164;8.012;2023-05-07T00:48:45;95518.06;;;12.31;100.00
76374;BME280;65197;50.164;8.012;2023-05-07T00:51:11;95517.16;;;12.32;100.00
76374;BME280;65197;50.164;8.012;2023-05-07T00:53:37;95522.25;;;12.32;100.00
76374;BME280;65197;50.164;8.012;2023-05-07T00:56:03;95524.66;;;12.35;100.00
76374;BME280;65197;50.164;8.012;2023-05-07T00:58:29;95512.94;;;12.31;100.00
76374;BME280;65197;50.164;8.012;2023-05-07T01:00:55;95510.53;;;12.28;100.00
76374;BME280;65197;50.164;8.012;2023-05-07T01:03:20;95525.38;;;12.37;100.00
76374;BME280;65197;50.164;8.012;2023-05-07T01:05:47;95507.63;;;12.34;100.00
76374;BME280;65197;50.164;8.012;2023-05-07T01:08:14;95510.94;;;12.36;99.73
76374;BME280;65197;50.164;8.012;2023-05-07T01:10:40;95519.50;;;12.51;99.21
76374;BME280;65197;50.164;8.012;2023-05-07T01:13:09;95509.13;;;12.38;99.77
76374;BME280;65197;50.164;8.012;2023-05-07T01:15:35;95521.59;;;12.44;100.00
76374;BME280;65197;50.164;8.012;2023-05-07T01:18:01;95516.72;;;12.39;100.00
76374;BME280;65197;50.164;8.012;2023-05-07T01:20:28;95517.56;;;12.40;100.00
76374;BME280;65197;50.164;8.012;2023-05-07T01:22:53;95506.19;;;12.30;100.00
76374;BME280;65197;50.164;8.012;2023-05-07T01:25:20;95514.38;;;12.20;100.00
76374;BME280;65197;50.164;8.012;2023-05-07T01:27:45;95516.91;;;12.20;100.00
76374;BME280;65197;50.164;8.012;2023-05-07T01:30:11;95518.06;;;12.15;100.00
76374;BME280;65197;50.164;8.012;2023-05-07T01:32:44;95513.13;;;12.12;100.00
76374;BME280;65197;50.164;8.012;2023-05-07T01:35:22;95510.88;;;12.06;100.00
76374;BME280;65197;50.164;8.012;2023-05-07T01:37:48;95484.28;;;11.94;100.00
76374;BME280;65197;50.164;8.012;2023-05-07T01:40:14;95503.66;;;11.98;100.00
76374;BME280;65197;50.164;8.012;2023-05-07T01:42:41;95489.78;;;11.86;100.00
76374;BME280;65197;50.164;8.012;2023-05-07T01:45:08;95494.91;;;11.86;100.00
76374;BME280;65197;50.164;8.012;2023-05-07T01:47:34;95490.94;;;11.81;100.00
76374;BME280;65197;50.164;8.012;2023-05-07T01:50:01;95490.19;;;11.79;100.00
76374;BME280;65197;50.164;8.012;2023-05-07T01:52:27;95491.06;;;11.78;100.00
76374;BME280;65197;50.164;8.012;2023-05-07T01:54:53;95497.84;;;11.79;100.00
76374;BME280;65197;50.164;8.012;2023-05-07T01:57:18;95501.91;;;11.83;100.00
76374;BME280;65197;50.164;8.012;2023-05-07T01:59:44;95487.03;;;11.73;100.00
76374;BME280;65197;50.164;8.012;2023-05-07T02:02:09;95482.53;;;11.79;100.00
76374;BME280;65197;50.164;8.012;2023-05-07T02:04:35;95497.31;;;11.89;100.00
76374;BME280;65197;50.164;8.012;2023-05-07T02:07:00;95494.75;;;11.89;100.00
76374;BME280;65197;50.164;8.012;2023-05-07T02:09:25;95496.38;;;11.90;100.00
76374;BME280;65197;50.164;8.012;2023-05-07T02:11:51;95489.72;;;11.88;100.00
76374;BME280;65197;50.164;8.012;2023-05-07T02:14:16;95507.38;;;11.92;100.00
76374;BME280;65197;50.164;8.012;2023-05-07T02:16:41;95485.25;;;11.76;100.00
76374;BME280;65197;50.164;8.012;2023-05-07T02:19:07;95498.59;;;11.81;100.00
76374;BME280;65197;50.164;8.012;2023-05-07T02:21:32;95499.66;;;11.77;100.00
76374;BME280;65197;50.164;8.012;2023-05-07T02:23:58;95492.22;;;11.72;100.00
76374;BME280;65197;50.164;8.012;2023-05-07T02:26:23;95489.00;;;11.68;100.00
76374;BME280;65197;50.164;8.012;2023-05-07T02:28:48;95500.81;;;11.71;100.00
76374;BME280;65197;50.164;8.012;2023-05-07T02:31:14;95490.84;;;11.66;100.00
76374;BME280;65197;50.164;8.012;2023-05-07T02:33:39;95507.81;;;11.67;100.00
76374;BME280;65197;50.164;8.012;2023-05-07T02:36:09;95497.94;;;11.61;100.00
76374;BME280;65197;50.164;8.012;2023-05-07T02:38:35;95507.81;;;11.67;100.00
76374;BME280;65197;50.164;8.012;2023-05-07T02:41:00;95505.16;;;11.69;100.00
76374;BME280;65197;50.164;8.012;2023-05-07T02:43:25;95508.22;;;11.76;100.00
76374;BME280;65197;50.164;8.012;2023-05-07T02:46:03;95497.25;;;11.73;100.00
76374;BME280;65197;50.164;8.012;2023-05-07T02:48:29;95493.47;;;11.65;100.00
76374;BME280;65197;50.164;8.012;2023-05-07T02:50:54;95498.34;;;11.69;100.00
76374;BME280;65197;50.164;8.012;2023-05-07T02:53:20;95497.59;;;11.67;100.00
76374;BME280;65197;50.164;8.012;2023-05-07T02:55:46;95504.53;;;11.65;100.00
76374;BME280;65197;50.164;8.012;2023-05-07T02:58:11;95492.97;;;11.58;100.00
76374;BME280;65197;50.164;8.012;2023-05-07T03:00:36;95505.50;;;11.63;100.00
76374;BME280;65197;50.164;8.012;2023-05-07T03:03:02;95492.97;;;11.58;100.00
76374;BME280;65197;50.164;8.012;2023-05-07T03:05:27;95483.81;;;11.54;100.00
76374;BME280;65197;50.164;8.012;2023-05-07T03:07:53;95482.59;;;11.61;100.00
76374;BME280;65197;50.164;8.012;2023-05-07T03:10:18;95478.47;;;11.59;100.00
76374;BME280;65197;50.164;8.012;2023-05-07T03:12:43;95480.28;;;11.72;100.00
76374;BME280;65197;50.164;8.012;2023-05-07T03:15:09;95472.28;;;11.63;100.00
76374;BME280;65197;50.164;8.012;2023-05-07T03:17:36;95476.56;;;11.62;100.00
76374;BME280;65197;50.164;8.012;2023-05-07T03:20:02;95474.84;;;11.63;100.00
76374;BME280;65197;50.164;8.012;2023-05-07T03:22:27;95470.88;;;11.57;100.00
76374;BME280;65197;50.164;8.012;2023-05-07T03:24:53;95475.66;;;11.63;100.00
76374;BME280;65197;50.164;8.012;2023-05-07T03:27:18;95473.88;;;11.65;100.00
76374;BME280;65197;50.164;8.012;2023-05-07T03:29:43;95458.28;;;11.54;100.00
76374;BME280;65197;50.164;8.012;2023-05-07T03:32:09;95467.28;;;11.61;100.00
76374;BME280;65197;50.164;8.012;2023-05-07T03:34:34;95468.56;;;11.68;100.00
76374;BME280;65197;50.164;8.012;2023-05-07T03:36:59;95464.28;;;11.69;100.00
76374;BME280;65197;50.164;8.012;2023-05-07T03:39:25;95470.88;;;11.73;100.00
76374;BME280;65197;50.164;8.012;2023-05-07T03:41:50;95459.38;;;11.66;100.00
76374;BME280;65197;50.164;8.012;2023-05-07T03:44:16;95455.41;;;11.60;100.00
76374;BME280;65197;50.164;8.012;2023-05-07T03:46:41;95461.25;;;11.62;100.00
76374;BME280;65197;50.164;8.012;2023-05-07T03:49:06;95468.91;;;11.62;100.00
76374;BME280;65197;50.164;8.012;2023-05-07T03:51:32;95459.84;;;11.57;100.00
76374;BME280;65197;50.164;8.012;2023-05-07T03:53:57;95481.25;;;11.54;100.00
76374;BME280;65197;50.164;8.012;2023-05-07T03:56:23;95473.78;;;11.51;100.00
76374;BME280;65197;50.164;8.012;2023-05-07T03:58:51;95473.03;;;11.49;100.00
76374;BME280;65197;50.164;8.012;2023-05-07T04:01:17;95480.81;;;11.46;100.00
76374;BME280;65197;50.164;8.012;2023-05-07T04:03:42;95482.06;;;11.39;100.00
76374;BME280;65197;50.164;8.012;2023-05-07T04:06:07;95483.28;;;11.32;100.00
76374;BME280;65197;50.164;8.012;2023-05-07T04:08:33;95493.19;;;11.38;100.00
76374;BME280;65197;50.164;8.012;2023-05-07T04:10:58;95491.38;;;11.40;100.00
76374;BME280;65197;50.164;8.012;2023-05-07T04:13:24;95472.00;;;11.36;100.00
76374;BME280;65197;50.164;8.012;2023-05-07T04:15:51;95497.88;;;11.45;100.00
76374;BME280;65197;50.164;8.012;2023-05-07T04:18:16;95495.56;;;11.41;100.00
76374;BME280;65197;50.164;8.012;2023-05-07T04:20:41;95499.94;;;11.39;100.00
76374;BME280;65197;50.164;8.012;2023-05-07T04:23:07;95498.34;;;11.36;100.00
76374;BME280;65197;50.164;8.012;2023-05-07T04:25:33;95501.69;;;11.38;100.00
76374;BME280;65197;50.164;8.012;2023-05-07T04:27:58;95494.41;;;11.31;100.00
76374;BME280;65197;50.164;8.012;2023-05-07T04:30:24;95485.19;;;11.28;100.00
76374;BME280;65197;50.164;8.012;2023-05-07T04:32:49;95496.22;;;11.29;100.00
76374;BME280;65197;50.164;8.012;2023-05-07T04:35:15;95500.34;;;11.31;100.00
76374;BME280;65197;50.164;8.012;2023-05-07T04:37:40;95500.69;;;11.41;100.00
76374;BME280;65197;50.164;8.012;2023-05-07T04:40:06;95500.53;;;11.44;100.00
76374;BME280;65197;50.164;8.012;2023-05-07T04:42:32;95501.59;;;11.40;100.00
76374;BME280;65197;50.164;8.012;2023-05-07T04:44:58;95502.34;;;11.42;100.00
76374;BME280;65197;50.164;8.012;2023-05-07T04:47:23;95507.72;;;11.53;100.00
76374;BME280;65197;50.164;8.012;2023-05-07T04:49:48;95491.00;;;11.63;100.00
76374;BME280;65197;50.164;8.012;2023-05-07T04:52:14;95507.44;;;11.91;100.00
76374;BME280;65197;50.164;8.012;2023-05-07T04:54:40;95478.75;;;11.86;100.00
76374;BME280;65197;50.164;8.012;2023-05-07T04:57:06;95511.47;;;11.95;100.00
76374;BME280;65197;50.164;8.012;2023-05-07T04:59:32;95508.81;;;11.96;100.00
76374;BME280;65197;50.164;8.012;2023-05-07T05:01:57;95511.13;;;12.01;100.00
76374;BME280;65197;50.164;8.012;2023-05-07T05:04:23;95514.44;;;12.03;100.00
76374;BME280;65197;50.164;8.012;2023-05-07T05:06:48;95511.13;;;12.01;100.00
76374;BME280;65197;50.164;8.012;2023-05-07T05:09:13;95512.72;;;12.04;100.00
76374;BME280;65197;50.164;8.012;2023-05-07T05:11:39;95518.41;;;12.09;100.00
76374;BME280;65197;50.164;8.012;2023-05-07T05:14:05;95512.63;;;12.05;100.00
76374;BME280;65197;50.164;8.012;2023-05-07T05:16:30;95509.81;;;12.10;100.00
76374;BME280;65197;50.164;8.012;2023-05-07T05:18:56;95513.59;;;12.18;100.00
76374;BME280;65197;50.164;8.012;2023-05-07T05:21:21;95523.34;;;12.28;100.00
76374;BME280;65197;50.164;8.012;2023-05-07T05:23:46;95528.59;;;12.24;100.00
76374;BME280;65197;50.164;8.012;2023-05-07T05:26:12;95533.16;;;12.19;100.00
76374;BME280;65197;50.164;8.012;2023-05-07T05:28:38;95536.38;;;12.23;100.00
76374;BME280;65197;50.164;8.012;2023-05-07T05:31:04;95526.53;;;12.15;100.00
76374;BME280;65197;50.164;8.012;2023-05-07T05:33:29;95538.00;;;12.24;100.00
76374;BME280;65197;50.164;8.012;2023-05-07T05:35:55;95524.00;;;12.15;100.00
76374;BME280;65197;50.164;8.012;2023-05-07T05:38:20;95536.22;;;12.26;100.00
76374;BME280;65197;50.164;8.012;2023-05-07T05:40:46;95541.53;;;12.37;100.00
76374;BME280;65197;50.164;8.012;2023-05-07T05:43:11;95525.78;;;12.29;100.00
76374;BME280;65197;50.164;8.012;2023-05-07T05:45:37;95537.50;;;12.49;100.00
76374;BME280;65197;50.164;8.012;2023-05-07T05:48:02;95540.22;;;12.62;99.18
76374;BME280;65197;50.164;8.012;2023-05-07T05:50:28;95535.28;;;12.73;97.46
76374;BME280;65197;50.164;8.012;2023-05-07T05:52:53;95536.66;;;12.94;96.41
76374;BME280;65197;50.164;8.012;2023-05-07T05:55:19;95537.38;;;13.41;93.86
76374;BME280;65197;50.164;8.012;2023-05-07T05:57:45;95535.00;;;13.52;92.83
76374;BME280;65197;50.164;8.012;2023-05-07T06:00:10;95545.44;;;13.78;91.65
76374;BME280;65197;50.164;8.012;2023-05-07T06:05:11;95535.81;;;14.76;83.36
76374;BME280;65197;50.164;8.012;2023-05-07T06:07:37;95523.06;;;15.27;80.02
76374;BME280;65197;50.164;8.012;2023-05-07T06:10:02;95532.81;;;15.48;78.98
76374;BME280;65197;50.164;8.012;2023-05-07T06:12:28;95530.13;;;15.88;78.93
76374;BME280;65197;50.164;8.012;2023-05-07T06:14:53;95530.84;;;15.39;76.97
76374;BME280;65197;50.164;8.012;2023-05-07T06:19:54;95535.88;;;15.15;81.36
76374;BME280;65197;50.164;8.012;2023-05-07T06:22:19;95531.53;;;14.90;80.10
76374;BME280;65197;50.164;8.012;2023-05-07T06:24:44;95533.75;;;14.69;81.56
76374;BME280;65197;50.164;8.012;2023-05-07T06:27:11;95525.84;;;14.45;82.73
76374;BME280;65197;50.164;8.012;2023-05-07T06:29:36;95538.16;;;14.40;80.73
76374;BME280;65197;50.164;8.012;2023-05-07T06:32:09;95533.00;;;14.40;80.47
76374;BME280;65197;50.164;8.012;2023-05-07T06:34:35;95535.91;;;14.21;81.32
76374;BME280;65197;50.164;8.012;2023-05-07T06:37:00;95537.63;;;14.35;82.49
76374;BME280;65197;50.164;8.012;2023-05-07T06:39:26;95507.06;;;14.17;83.16
76374;BME280;65197;50.164;8.012;2023-05-07T06:41:51;95546.00;;;14.51;83.96
76374;BME280;65197;50.164;8.012;2023-05-07T06:44:17;95542.31;;;14.55;83.24
76374;BME280;65197;50.164;8.012;2023-05-07T06:46:42;95540.28;;;14.60;84.03
76374;BME280;65197;50.164;8.012;2023-05-07T06:49:08;95543.81;;;14.45;83.71
76374;BME280;65197;50.164;8.012;2023-05-07T06:51:33;95530.69;;;14.22;83.88
76374;BME280;65197;50.164;8.012;2023-05-07T06:53:59;95552.84;;;14.23;87.55
76374;BME280;65197;50.164;8.012;2023-05-07T06:56:24;95544.06;;;14.13;88.81
76374;BME280;65197;50.164;8.012;2023-05-07T06:58:50;95542.97;;;14.17;91.66
76374;BME280;65197;50.164;8.012;2023-05-07T07:01:15;95555.06;;;14.15;93.32
76374;BME280;65197;50.164;8.012;2023-05-07T07:03:41;95555.91;;;14.16;95.78
76374;BME280;65197;50.164;8.012;2023-05-07T07:06:06;95552.16;;;14.07;94.78
76374;BME280;65197;50.164;8.012;2023-05-07T07:08:31;95556.56;;;14.05;96.83
76374;BME280;65197;50.164;8.012;2023-05-07T07:10:57;95562.22;;;14.10;96.65
76374;BME280;65197;50.164;8.012;2023-05-07T07:13:23;95548.03;;;14.05;96.00
76374;BME280;65197;50.164;8.012;2023-05-07T07:15:48;95557.13;;;13.96;93.28
76374;BME280;65197;50.164;8.012;2023-05-07T07:18:13;95564.25;;;14.05;98.21
76374;BME280;65197;50.164;8.012;2023-05-07T07:20:39;95544.31;;;13.96;94.33
76374;BME280;65197;50.164;8.012;2023-05-07T07:23:05;95553.06;;;14.06;96.38
76374;BME280;65197;50.164;8.012;2023-05-07T07:25:30;95549.59;;;14.07;96.55
76374;BME280;65197;50.164;8.012;2023-05-07T07:27:55;95545.75;;;14.00;97.03
76374;BME280;65197;50.164;8.012;2023-05-07T07:30:21;95553.44;;;14.14;96.72
76374;BME280;65197;50.164;8.012;2023-05-07T07:32:46;95545.56;;;14.03;97.68
76374;BME280;65197;50.164;8.012;2023-05-07T07:35:12;95547.13;;;14.06;97.41
76374;BME280;65197;50.164;8.012;2023-05-07T07:37:37;95553.78;;;14.08;97.19
76374;BME280;65197;50.164;8.012;2023-05-07T07:40:03;95551.34;;;14.07;97.95
76374;BME280;65197;50.164;8.012;2023-05-07T07:42:28;95564.25;;;14.05;98.45
76374;BME280;65197;50.164;8.012;2023-05-07T07:44:54;95567.78;;;14.17;99.12
76374;BME280;65197;50.164;8.012;2023-05-07T07:47:20;95556.53;;;14.19;98.11
76374;BME280;65197;50.164;8.012;2023-05-07T07:49:45;95567.03;;;14.29;97.03
76374;BME280;65197;50.164;8.012;2023-05-07T07:52:10;95565.25;;;14.44;94.96
76374;BME280;65197;50.164;8.012;2023-05-07T07:54:36;95567.16;;;14.55;93.42
76374;BME280;65197;50.164;8.012;2023-05-07T07:57:01;95563.34;;;14.74;92.16
76374;BME280;65197;50.164;8.012;2023-05-07T07:59:27;95565.13;;;14.87;91.80
76374;BME280;65197;50.164;8.012;2023-05-07T08:01:52;95561.91;;;14.83;88.93
76374;BME280;65197;50.164;8.012;2023-05-07T08:04:21;95571.63;;;15.05;90.68
76374;BME280;65197;50.164;8.012;2023-05-07T08:06:46;95567.22;;;15.20;86.07
76374;BME280;65197;50.164;8.012;2023-05-07T08:09:11;95567.56;;;15.41;91.30
76374;BME280;65197;50.164;8.012;2023-05-07T08:11:38;95566.94;;;15.63;86.27
76374;BME280;65197;50.164;8.012;2023-05-07T08:14:03;95569.84;;;15.84;81.79
76374;BME280;65197;50.164;8.012;2023-05-07T08:16:29;95579.28;;;15.96;80.47
76374;BME280;65197;50.164;8.012;2023-05-07T08:18:55;95567.75;;;15.89;81.20
76374;BME280;65197;50.164;8.012;2023-05-07T08:21:20;95576.94;;;16.29;80.78
76374;BME280;65197;50.164;8.012;2023-05-07T08:23:45;95582.44;;;16.49;76.85
76374;BME280;65197;50.164;8.012;2023-05-07T08:26:11;95594.53;;;16.72;77.13
76374;BME280;65197;50.164;8.012;2023-05-07T08:28:36;95576.38;;;16.98;74.11
76374;BME280;65197;50.164;8.012;2023-05-07T08:31:02;95569.16;;;16.79;74.22
76374;BME280;65197;50.164;8.012;2023-05-07T08:33:27;95580.81;;;16.96;75.81
76374;BME280;65197;50.164;8.012;2023-05-07T08:35:53;95556.84;;;17.64;75.37
76374;BME280;65197;50.164;8.012;2023-05-07T08:38:18;95576.47;;;17.89;71.83
76374;BME280;65197;50.164;8.012;2023-05-07T08:40:44;95575.22;;;17.60;69.17
76374;BME280;65197;50.164;8.012;2023-05-07T08:43:12;95568.38;;;17.94;69.04
76374;BME280;65197;50.164;8.012;2023-05-07T08:45:39;95563.19;;;18.05;68.89
76374;BME280;65197;50.164;8.012;2023-05-07T08:48:09;95566.72;;;18.04;66.97
76374;BME280;65197;50.164;8.012;2023-05-07T08:50:37;95580.47;;;18.59;68.90
76374;BME280;65197;50.164;8.012;2023-05-07T08:53:04;95551.69;;;18.09;66.58
76374;BME280;65197;50.164;8.012;2023-05-07T08:55:30;95578.44;;;18.19;65.08
76374;BME280;65197;50.164;8.012;2023-05-07T08:57:55;95569.88;;;18.62;64.94
76374;BME280;65197;50.164;8.012;2023-05-07T09:00:21;95580.19;;;18.85;64.29
76374;BME280;65197;50.164;8.012;2023-05-07T09:02:46;95580.41;;;18.93;65.13
76374;BME280;65197;50.164;8.012;2023-05-07T09:05:12;95566.41;;;18.95;64.38
76374;BME280;65197;50.164;8.012;2023-05-07T09:07:37;95567.31;;;18.73;65.29
76374;BME280;65197;50.164;8.012;2023-05-07T09:10:04;95570.13;;;18.81;65.20
76374;BME280;65197;50.164;8.012;2023-05-07T09:12:29;95567.91;;;18.77;64.37
76374;BME280;65197;50.164;8.012;2023-05-07T09:14:55;95578.84;;;19.22;63.33
76374;BME280;65197;50.164;8.012;2023-05-07T09:17:21;95580.41;;;18.93;66.34
76374;BME280;65197;50.164;8.012;2023-05-07T09:19:46;95576.66;;;19.39;65.57
76374;BME280;65197;50.164;8.012;2023-05-07T09:22:13;95585.53;;;19.25;61.02
76374;BME280;65197;50.164;8.012;2023-05-07T09:24:38;95570.69;;;19.90;63.05
76374;BME280;65197;50.164;8.012;2023-05-07T09:27:05;95568.53;;;20.45;57.93
76374;BME280;65197;50.164;8.012;2023-05-07T09:29:31;95572.91;;;20.04;56.78
76374;BME280;65197;50.164;8.012;2023-05-07T09:32:06;95575.84;;;20.20;56.76
76374;BME280;65197;50.164;8.012;2023-05-07T09:34:33;95577.28;;;20.44;54.64
76374;BME280;65197;50.164;8.012;2023-05-07T09:37:02;95582.66;;;20.21;56.49
76374;BME280;65197;50.164;8.012;2023-05-07T09:39:49;95582.16;;;20.47;54.75
76374;BME280;65197;50.164;8.012;2023-05-07T09:42:15;95588.69;;;20.31;54.31
76374;BME280;65197;50.164;8.012;2023-05-07T09:44:40;95588.09;;;20.18;55.43
76374;BME280;65197;50.164;8.012;2023-05-07T09:47:07;95588.03;;;19.99;56.60
76374;BME280;65197;50.164;8.012;2023-05-07T09:49:37;95585.94;;;20.33;60.81
76374;BME280;65197;50.164;8.012;2023-05-07T09:52:05;95566.97;;;19.82;53.45
76374;BME280;65197;50.164;8.012;2023-05-07T09:54:36;95579.22;;;20.51;55.16
76374;BME280;65197;50.164;8.012;2023-05-07T09:57:04;95581.47;;;20.85;52.07
76374;BME280;65197;50.164;8.012;2023-05-07T09:59:31;95570.22;;;20.55;55.02
76374;BME280;65197;50.164;8.012;2023-05-07T10:01:59;95577.03;;;20.06;51.00
76374;BME280;65197;50.164;8.012;2023-05-07T10:04:25;95568.19;;;19.78;55.80
76374;BME280;65197;50.164;8.012;2023-05-07T10:06:52;95585.50;;;20.49;51.88
76374;BME280;65197;50.164;8.012;2023-05-07T10:09:19;95576.91;;;20.58;52.04
76374;BME280;65197;50.164;8.012;2023-05-07T10:11:44;95569.97;;;21.07;52.60
76374;BME280;65197;50.164;8.012;2023-05-07T10:14:10;95578.41;;;20.51;50.96
76374;BME280;65197;50.164;8.012;2023-05-07T10:16:37;95579.56;;;20.37;51.46
76374;BME280;65197;50.164;8.012;2023-05-07T10:19:06;95574.91;;;20.71;55.33
76374;BME280;65197;50.164;8.012;2023-05-07T10:21:36;95576.53;;;21.01;50.00
76374;BME280;65197;50.164;8.012;2023-05-07T10:24:25;95574.91;;;20.91;49.86
76374;BME280;65197;50.164;8.012;2023-05-07T10:26:52;95582.38;;;20.84;52.69
76374;BME280;65197;50.164;8.012;2023-05-07T10:29:30;95575.31;;;20.26;50.52
76374;BME280;65197;50.164;8.012;2023-05-07T10:34:53;95586.31;;;20.59;49.45
76374;BME280;65197;50.164;8.012;2023-05-07T10:37:21;95585.41;;;20.29;50.78
76374;BME280;65197;50.164;8.012;2023-05-07T10:39:47;95575.97;;;20.88;49.75
76374;BME280;65197;50.164;8.012;2023-05-07T10:42:13;95575.06;;;20.99;51.69
76374;BME280;65197;50.164;8.012;2023-05-07T10:44:39;95582.25;;;20.66;48.68
76374;BME280;65197;50.164;8.012;2023-05-07T10:47:12;95581.69;;;20.53;51.00
76374;BME280;65197;50.164;8.012;2023-05-07T10:52:20;95576.47;;;20.43;47.49
76374;BME280;65197;50.164;8.012;2023-05-07T10:54:46;95576.09;;;20.48;49.00
76374;BME280;65197;50.164;8.012;2023-05-07T10:57:36;95577.41;;;20.02;48.09
76374;BME280;65197;50.164;8.012;2023-05-07T11:00:03;95578.66;;;20.07;50.48
76374;BME280;65197;50.164;8.012;2023-05-07T11:05:31;95576.56;;;20.42;51.90
76374;BME280;65197;50.164;8.012;2023-05-07T11:08:01;95580.69;;;20.04;49.11
76374;BME280;65197;50.164;8.012;2023-05-07T11:10:51;95586.56;;;19.75;50.74
76374;BME280;65197;50.164;8.012;2023-05-07T11:13:17;95577.94;;;19.65;50.66
76374;BME280;65197;50.164;8.012;2023-05-07T11:15:47;95579.59;;;19.55;51.35
76374;BME280;65197;50.164;8.012;2023-05-07T11:18:17;95579.19;;;19.71;51.88
76374;BME280;65197;50.164;8.012;2023-05-07T11:26:00;95577.06;;;19.86;52.83
76374;BME280;65197;50.164;8.012;2023-05-07T11:28:28;95579.34;;;19.58;52.08
76374;BME280;65197;50.164;8.012;2023-05-07T11:30:53;95581.78;;;20.01;56.76
76374;BME280;65197;50.164;8.012;2023-05-07T11:33:19;95571.56;;;19.69;52.49
76374;BME280;65197;50.164;8.012;2023-05-07T11:35:45;95562.91;;;19.90;51.87
76374;BME280;65197;50.164;8.012;2023-05-07T11:38:12;95570.91;;;20.48;52.17
76374;BME280;65197;50.164;8.012;2023-05-07T11:40:50;95573.94;;;20.72;50.70
76374;BME280;65197;50.164;8.012;2023-05-07T11:43:16;95563.16;;;20.87;49.03
76374;BME280;65197;50.164;8.012;2023-05-07T11:45:42;95578.06;;;20.94;55.06
76374;BME280;65197;50.164;8.012;2023-05-07T11:48:08;95567.81;;;21.31;55.48
76374;BME280;65197;50.164;8.012;2023-05-07T11:50:33;95570.28;;;20.94;53.51
76374;BME280;65197;50.164;8.012;2023-05-07T11:52:58;95570.38;;;20.64;50.25
76374;BME280;65197;50.164;8.012;2023-05-07T11:55:24;95573.69;;;20.75;53.40
76374;BME280;65197;50.164;8.012;2023-05-07T11:57:51;95579.94;;;20.82;51.39
76374;BME280;65197;50.164;8.012;2023-05-07T12:00:16;95578.97;;;21.03;51.56
76374;BME280;65197;50.164;8.012;2023-05-07T12:02:45;95569.03;;;20.98;50.32
76374;BME280;65197;50.164;8.012;2023-05-07T12:05:10;95577.06;;;20.66;49.55
76374;BME280;65197;50.164;8.012;2023-05-07T12:07:36;95568.22;;;21.27;50.04
76374;BME280;65197;50.164;8.012;2023-05-07T12:10:05;95567.50;;;21.54;47.41
76374;BME280;65197;50.164;8.012;2023-05-07T12:12:38;95566.81;;;21.52;55.04
76374;BME280;65197;50.164;8.012;2023-05-07T12:15:03;95572.47;;;20.99;48.63
76374;BME280;65197;50.164;8.012;2023-05-07T12:17:29;95565.72;;;20.48;46.12
76374;BME280;65197;50.164;8.012;2023-05-07T12:19:54;95573.22;;;20.51;46.25
76374;BME280;65197;50.164;8.012;2023-05-07T12:22:20;95573.50;;;20.57;48.08
76374;BME280;65197;50.164;8.012;2023-05-07T12:24:47;95573.38;;;20.78;45.75
76374;BME280;65197;50.164;8.012;2023-05-07T12:27:16;95567.72;;;21.70;44.63
76374;BME280;65197;50.164;8.012;2023-05-07T12:29:50;95568.03;;;22.14;45.70
76374;BME280;65197;50.164;8.012;2023-05-07T12:32:20;95572.31;;;21.96;40.98
76374;BME280;65197;50.164;8.012;2023-05-07T12:34:46;95564.22;;;21.52;47.19
76374;BME280;65197;50.164;8.012;2023-05-07T12:37:12;95581.03;;;21.38;44.96
76374;BME280;65197;50.164;8.012;2023-05-07T12:39:38;95568.75;;;21.50;42.02
76374;BME280;65197;50.164;8.012;2023-05-07T12:42:15;95567.00;;;21.41;43.72
76374;BME280;65197;50.164;8.012;2023-05-07T12:44:41;95567.84;;;21.78;46.58
76374;BME280;65197;50.164;8.012;2023-05-07T12:47:10;95567.78;;;20.93;44.99
76374;BME280;65197;50.164;8.012;2023-05-07T12:49:35;95572.59;;;20.38;47.58
76374;BME280;65197;50.164;8.012;2023-05-07T12:52:04;95568.81;;;20.42;50.74
76374;BME280;65197;50.164;8.012;2023-05-07T12:54:36;95571.50;;;20.21;50.17
76374;BME280;65197;50.164;8.012;2023-05-07T12:57:04;95567.94;;;20.22;53.96
76374;BME280;65197;50.164;8.012;2023-05-07T12:59:34;95577.13;;;20.05;52.43
76374;BME280;65197;50.164;8.012;2023-05-07T13:02:00;95579.59;;;19.97;51.49
76374;BME280;65197;50.164;8.012;2023-05-07T13:04:25;95580.25;;;19.99;52.56
76374;BME280;65197;50.164;8.012;2023-05-07T13:06:51;95574.09;;;19.90;51.68
76374;BME280;65197;50.164;8.012;2023-05-07T13:09:16;95580.66;;;19.94;53.63